sensor_id;sensor_type;location;lat;lon;timestamp;temperature;humidity
26103;DHT22;69760;49.380;8.998;2023-12-20T11:00:24;6.90;99.90
26103;DHT22;69760;49.380;8.998;2023-12-20T11:02:50;6.90;99.90
26103;DHT22;69760;49.380;8.998;2023-12-20T11:05:45;7.00;99.90
26103;DHT22;69760;49.380;8.998;2023-12-20T11:15:02;7.10;99.90
26103;DHT22;69760;49.380;8.998;2023-12-20T11:17:31;7.10;99.90
26103;DHT22;69760;49.380;8.998;2023-12-20T11:22:24;7.30;99.90
26103;DHT22;69760;49.380;8.998;2023-12-20T11:41:44;7.00;99.90
26103;DHT22;69760;49.380;8.998;2023-12-20T11:44:10;7.00;99.90
26103;DHT22;69760;49.380;8.998;2023-12-20T11:46:36;7.00;99.90
26103;DHT22;69760;49.380;8.998;2023-12-20T11:49:02;7.00;99.90
26103;DHT22;69760;49.380;8.998;2023-12-20T11:51:28;7.00;99.90
26103;DHT22;69760;49.380;8.998;2023-12-20T12:50:38;6.80;99.90
26103;DHT22;69760;49.380;8.998;2023-12-20T12:53:03;6.80;99.90
26103;DHT22;69760;49.380;8.998;2023-12-20T12:55:32;6.80;99.90
26103;DHT22;69760;49.380;8.998;2023-12-20T12:57:58;6.70;99.90
26103;DHT22;69760;49.380;8.998;2023-12-20T13:00:23;6.70;99.90
26103;DHT22;69760;49.380;8.998;2023-12-20T13:02:50;6.70;99.90
26103;DHT22;69760;49.380;8.998;2023-12-20T13:05:15;6.80;99.90
26103;DHT22;69760;49.380;8.998;2023-12-20T13:20:38;6.70;99.90
26103;DHT22;69760;49.380;8.998;2023-12-20T13:23:05;6.60;99.90
26103;DHT22;69760;49.380;8.998;2023-12-20T13:25:30;6.60;99.90
26103;DHT22;69760;49.380;8.998;2023-12-20T13:27:56;6.60;99.90
26103;DHT22;69760;49.380;8.998;2023-12-20T13:30:22;6.60;99.90
26103;DHT22;69760;49.380;8.998;2023-12-20T13:32:47;6.60;99.90
26103;DHT22;69760;49.380;8.998;2023-12-20T13:35:14;6.50;99.90
26103;DHT22;69760;49.380;8.998;2023-12-20T13:37:39;6.50;99.90
26103;DHT22;69760;49.380;8.998;2023-12-20T13:40:06;6.50;99.90
26103;DHT22;69760;49.380;8.998;2023-12-20T13:42:31;6.50;99.90
26103;DHT22;69760;49.380;8.998;2023-12-20T13:44:57;6.60;99.90
26103;DHT22;69760;49.380;8.998;2023-12-20T13:47:22;6.60;99.90
26103;DHT22;69760;49.380;8.998;2023-12-20T13:49:48;6.60;99.90
26103;DHT22;69760;49.380;8.998;2023-12-20T13:52:13;6.60;99.90
26103;DHT22;69760;49.380;8.998;2023-12-20T13:54:39;6.50;99.90
26103;DHT22;69760;49.380;8.998;2023-12-20T13:57:04;6.50;99.90
26103;DHT22;69760;49.380;8.998;2023-12-20T13:59:30;6.50;99.90
26103;DHT22;69760;49.380;8.998;2023-12-20T14:01:56;6.40;99.90
26103;DHT22;69760;49.380;8.998;2023-12-20T14:04:22;6.40;99.90
26103;DHT22;69760;49.380;8.998;2023-12-20T14:06:48;6.30;99.90
26103;DHT22;69760;49.380;8.998;2023-12-20T14:09:13;6.20;99.90
26103;DHT22;69760;49.380;8.998;2023-12-20T14:11:40;6.30;99.90
26103;DHT22;69760;49.380;8.998;2023-12-20T14:14:07;6.30;99.90
26103;DHT22;69760;49.380;8.998;2023-12-20T14:16:34;6.20;99.90
26103;DHT22;69760;49.380;8.998;2023-12-20T14:19:00;6.20;99.90
26103;DHT22;69760;49.380;8.998;2023-12-20T14:21:26;6.10;99.90
26103;DHT22;69760;49.380;8.998;2023-12-20T14:23:51;6.10;99.90
26103;DHT22;69760;49.380;8.998;2023-12-20T14:26:17;6.20;99.90
26103;DHT22;69760;49.380;8.998;2023-12-20T14:28:43;6.10;99.90
26103;DHT22;69760;49.380;8.998;2023-12-20T14:31:09;6.10;99.90
26103;DHT22;69760;49.380;8.998;2023-12-20T14:33:35;6.10;99.90
26103;DHT22;69760;49.380;8.998;2023-12-20T14:36:03;6.10;99.90
26103;DHT22;69760;49.380;8.998;2023-12-20T14:38:33;6.10;99.90
26103;DHT22;69760;49.380;8.998;2023-12-20T14:40:59;6.20;99.90
26103;DHT22;69760;49.380;8.998;2023-12-20T14:43:26;6.20;99.90
26103;DHT22;69760;49.380;8.998;2023-12-20T14:45:52;6.20;99.90
26103;DHT22;69760;49.380;8.998;2023-12-20T14:48:17;6.30;99.90
26103;DHT22;69760;49.380;8.998;2023-12-20T14:50:44;6.30;99.90
26103;DHT22;69760;49.380;8.998;2023-12-20T14:53:10;6.40;99.90
26103;DHT22;69760;49.380;8.998;2023-12-20T14:55:35;6.30;99.90
26103;DHT22;69760;49.380;8.998;2023-12-20T14:58:01;6.40;99.90
26103;DHT22;69760;49.380;8.998;2023-12-20T15:00:27;6.40;99.90
26103;DHT22;69760;49.380;8.998;2023-12-20T15:02:53;6.40;99.90
26103;DHT22;69760;49.380;8.998;2023-12-20T15:05:22;6.40;99.90
26103;DHT22;69760;49.380;8.998;2023-12-20T15:07:48;6.40;99.90
26103;DHT22;69760;49.380;8.998;2023-12-20T15:10:14;6.40;99.90
26103;DHT22;69760;49.380;8.998;2023-12-20T15:12:40;6.40;99.90
26103;DHT22;69760;49.380;8.998;2023-12-20T15:15:06;6.40;99.90
26103;DHT22;69760;49.380;8.998;2023-12-20T15:17:31;6.40;99.90
26103;DHT22;69760;49.380;8.998;2023-12-20T15:19:57;6.40;99.90
26103;DHT22;69760;49.380;8.998;2023-12-20T15:22:23;6.50;99.90
26103;DHT22;69760;49.380;8.998;2023-12-20T15:24:49;6.40;99.90
26103;DHT22;69760;49.380;8.998;2023-12-20T15:27:16;6.40;99.90
26103;DHT22;69760;49.380;8.998;2023-12-20T15:29:43;6.40;99.90
26103;DHT22;69760;49.380;8.998;2023-12-20T15:32:08;6.40;99.90
26103;DHT22;69760;49.380;8.998;2023-12-20T15:34:34;6.40;99.90
26103;DHT22;69760;49.380;8.998;2023-12-20T15:36:59;6.40;99.90
26103;DHT22;69760;49.380;8.998;2023-12-20T15:39:25;6.30;99.90
26103;DHT22;69760;49.380;8.998;2023-12-20T15:41:51;6.40;99.90
26103;DHT22;69760;49.380;8.998;2023-12-20T15:44:17;6.40;99.90
26103;DHT22;69760;49.380;8.998;2023-12-20T15:46:43;6.40;99.90
26103;DHT22;69760;49.380;8.998;2023-12-20T15:49:08;6.40;99.90
26103;DHT22;69760;49.380;8.998;2023-12-20T15:51:36;6.40;99.90
26103;DHT22;69760;49.380;8.998;2023-12-20T15:54:02;6.40;99.90
26103;DHT22;69760;49.380;8.998;2023-12-20T15:56:32;6.40;99.90
26103;DHT22;69760;49.380;8.998;2023-12-20T15:58:57;6.40;99.90
26103;DHT22;69760;49.380;8.998;2023-12-20T16:01:24;6.30;99.90
26103;DHT22;69760;49.380;8.998;2023-12-20T16:03:49;6.30;99.90
26103;DHT22;69760;49.380;8.998;2023-12-20T16:06:15;6.30;99.90
26103;DHT22;69760;49.380;8.998;2023-12-20T16:08:41;6.30;99.90
26103;DHT22;69760;49.380;8.998;2023-12-20T16:11:07;6.30;99.90
26103;DHT22;69760;49.380;8.998;2023-12-20T16:13:33;6.30;99.90
26103;DHT22;69760;49.380;8.998;2023-12-20T16:16:01;6.20;99.90
26103;DHT22;69760;49.380;8.998;2023-12-20T16:18:27;6.20;99.90
26103;DHT22;69760;49.380;8.998;2023-12-20T16:20:53;6.30;99.90
26103;DHT22;69760;49.380;8.998;2023-12-20T16:23:19;6.30;99.90
26103;DHT22;69760;49.380;8.998;2023-12-20T16:25:44;6.30;99.90
26103;DHT22;69760;49.380;8.998;2023-12-20T16:28:10;6.40;99.90
26103;DHT22;69760;49.380;8.998;2023-12-20T16:30:36;6.40;99.90
26103;DHT22;69760;49.380;8.998;2023-12-20T16:33:02;6.50;99.90
26103;DHT22;69760;49.380;8.998;2023-12-20T16:35:28;6.50;99.90
26103;DHT22;69760;49.380;8.998;2023-12-20T16:37:53;6.50;99.90
26103;DHT22;69760;49.380;8.998;2023-12-20T16:40:19;6.50;99.90
26103;DHT22;69760;49.380;8.998;2023-12-20T16:42:52;6.60;99.90
26103;DHT22;69760;49.380;8.998;2023-12-20T16:45:18;6.60;99.90
26103;DHT22;69760;49.380;8.998;2023-12-20T16:47:44;6.70;99.90
26103;DHT22;69760;49.380;8.998;2023-12-20T16:50:10;6.60;99.90
26103;DHT22;69760;49.380;8.998;2023-12-20T16:52:35;6.60;99.90
26103;DHT22;69760;49.380;8.998;2023-12-20T16:55:03;6.60;99.90
26103;DHT22;69760;49.380;8.998;2023-12-20T16:57:29;6.50;99.90
26103;DHT22;69760;49.380;8.998;2023-12-20T16:59:55;6.50;99.90
26103;DHT22;69760;49.380;8.998;2023-12-20T17:02:21;6.60;99.90
26103;DHT22;69760;49.380;8.998;2023-12-20T17:04:46;6.50;99.90
26103;DHT22;69760;49.380;8.998;2023-12-20T17:07:12;6.50;99.90
26103;DHT22;69760;49.380;8.998;2023-12-20T17:09:38;6.50;99.90
26103;DHT22;69760;49.380;8.998;2023-12-20T17:12:05;6.60;99.90
26103;DHT22;69760;49.380;8.998;2023-12-20T17:14:31;6.60;99.90
26103;DHT22;69760;49.380;8.998;2023-12-20T17:16:58;6.60;99.90
26103;DHT22;69760;49.380;8.998;2023-12-20T17:19:23;6.50;99.90
26103;DHT22;69760;49.380;8.998;2023-12-20T17:21:49;6.50;99.90
26103;DHT22;69760;49.380;8.998;2023-12-20T17:24:16;6.50;99.90
26103;DHT22;69760;49.380;8.998;2023-12-20T17:26:42;6.50;99.90
26103;DHT22;69760;49.380;8.998;2023-12-20T17:29:07;6.50;99.90
26103;DHT22;69760;49.380;8.998;2023-12-20T17:31:33;6.60;99.90
26103;DHT22;69760;49.380;8.998;2023-12-20T17:33:58;6.60;99.90
26103;DHT22;69760;49.380;8.998;2023-12-20T17:36:24;6.60;99.90
26103;DHT22;69760;49.380;8.998;2023-12-20T17:38:49;6.70;99.90
26103;DHT22;69760;49.380;8.998;2023-12-20T17:41:15;6.70;99.90
26103;DHT22;69760;49.380;8.998;2023-12-20T17:43:41;6.70;99.90
26103;DHT22;69760;49.380;8.998;2023-12-20T17:46:07;6.70;99.90
26103;DHT22;69760;49.380;8.998;2023-12-20T17:48:33;6.70;99.90
26103;DHT22;69760;49.380;8.998;2023-12-20T17:50:58;6.70;99.90
26103;DHT22;69760;49.380;8.998;2023-12-20T17:53:24;6.60;99.90
26103;DHT22;69760;49.380;8.998;2023-12-20T17:55:50;6.60;99.90
26103;DHT22;69760;49.380;8.998;2023-12-20T17:58:15;6.70;99.90
26103;DHT22;69760;49.380;8.998;2023-12-20T18:00:41;6.80;99.90
26103;DHT22;69760;49.380;8.998;2023-12-20T18:03:06;6.80;99.90
26103;DHT22;69760;49.380;8.998;2023-12-20T18:05:32;6.80;99.90
26103;DHT22;69760;49.380;8.998;2023-12-20T18:07:58;6.70;99.90
26103;DHT22;69760;49.380;8.998;2023-12-20T18:10:23;6.70;99.90
26103;DHT22;69760;49.380;8.998;2023-12-20T18:12:49;6.60;99.90
26103;DHT22;69760;49.380;8.998;2023-12-20T18:15:15;6.50;99.90
26103;DHT22;69760;49.380;8.998;2023-12-20T18:17:40;6.50;99.90
26103;DHT22;69760;49.380;8.998;2023-12-20T18:20:09;6.50;99.90
26103;DHT22;69760;49.380;8.998;2023-12-20T18:22:35;6.50;99.90
26103;DHT22;69760;49.380;8.998;2023-12-20T18:25:01;6.40;99.90
26103;DHT22;69760;49.380;8.998;2023-12-20T18:27:27;6.40;99.90
26103;DHT22;69760;49.380;8.998;2023-12-20T18:29:52;6.40;99.90
26103;DHT22;69760;49.380;8.998;2023-12-20T18:32:18;6.50;99.90
26103;DHT22;69760;49.380;8.998;2023-12-20T18:34:43;6.40;99.90
26103;DHT22;69760;49.380;8.998;2023-12-20T18:37:09;6.50;99.90
26103;DHT22;69760;49.380;8.998;2023-12-20T18:39:39;6.50;99.90
26103;DHT22;69760;49.380;8.998;2023-12-20T18:42:05;6.40;99.90
26103;DHT22;69760;49.380;8.998;2023-12-20T18:44:31;6.40;99.90
26103;DHT22;69760;49.380;8.998;2023-12-20T18:46:57;6.40;99.90
26103;DHT22;69760;49.380;8.998;2023-12-20T18:49:23;6.30;99.90
26103;DHT22;69760;49.380;8.998;2023-12-20T18:51:48;6.30;99.90
26103;DHT22;69760;49.380;8.998;2023-12-20T18:54:14;6.40;99.90
26103;DHT22;69760;49.380;8.998;2023-12-20T18:56:39;6.40;99.90
26103;DHT22;69760;49.380;8.998;2023-12-20T18:59:08;6.30;99.90
26103;DHT22;69760;49.380;8.998;2023-12-20T19:01:33;6.40;99.90
26103;DHT22;69760;49.380;8.998;2023-12-20T19:03:59;6.40;99.90
26103;DHT22;69760;49.380;8.998;2023-12-20T19:06:25;6.40;99.90
26103;DHT22;69760;49.380;8.998;2023-12-20T19:08:50;6.40;99.90
26103;DHT22;69760;49.380;8.998;2023-12-20T19:11:17;6.40;99.90
26103;DHT22;69760;49.380;8.998;2023-12-20T19:13:43;6.50;99.90
26103;DHT22;69760;49.380;8.998;2023-12-20T19:16:09;6.40;99.90
26103;DHT22;69760;49.380;8.998;2023-12-20T19:18:34;6.40;99.90
26103;DHT22;69760;49.380;8.998;2023-12-20T19:21:00;6.30;99.90
26103;DHT22;69760;49.380;8.998;2023-12-20T19:23:26;6.30;99.90
26103;DHT22;69760;49.380;8.998;2023-12-20T19:25:53;6.30;99.90
26103;DHT22;69760;49.380;8.998;2023-12-20T19:28:18;6.30;99.90
26103;DHT22;69760;49.380;8.998;2023-12-20T19:30:45;6.30;99.90
26103;DHT22;69760;49.380;8.998;2023-12-20T19:33:11;6.40;99.90
26103;DHT22;69760;49.380;8.998;2023-12-20T19:35:37;6.30;99.90
26103;DHT22;69760;49.380;8.998;2023-12-20T19:38:03;6.30;99.90
26103;DHT22;69760;49.380;8.998;2023-12-20T19:40:29;6.30;99.90
26103;DHT22;69760;49.380;8.998;2023-12-20T19:42:54;6.20;99.90
26103;DHT22;69760;49.380;8.998;2023-12-20T19:45:20;6.30;99.90
26103;DHT22;69760;49.380;8.998;2023-12-20T19:47:50;6.30;99.90
26103;DHT22;69760;49.380;8.998;2023-12-20T19:50:16;6.40;99.90
26103;DHT22;69760;49.380;8.998;2023-12-20T19:52:42;6.30;99.90
26103;DHT22;69760;49.380;8.998;2023-12-20T19:55:08;6.40;99.90
26103;DHT22;69760;49.380;8.998;2023-12-20T19:57:34;6.40;99.90
26103;DHT22;69760;49.380;8.998;2023-12-20T19:59:59;6.30;99.90
26103;DHT22;69760;49.380;8.998;2023-12-20T20:02:25;6.30;99.90
26103;DHT22;69760;49.380;8.998;2023-12-20T20:04:51;6.30;99.90
26103;DHT22;69760;49.380;8.998;2023-12-20T20:07:16;6.40;99.90
26103;DHT22;69760;49.380;8.998;2023-12-20T20:09:45;6.40;99.90
26103;DHT22;69760;49.380;8.998;2023-12-20T20:12:11;6.40;99.90
26103;DHT22;69760;49.380;8.998;2023-12-20T20:14:37;6.40;99.90
26103;DHT22;69760;49.380;8.998;2023-12-20T20:17:02;6.40;99.90
26103;DHT22;69760;49.380;8.998;2023-12-20T20:19:28;6.40;99.90
26103;DHT22;69760;49.380;8.998;2023-12-20T20:21:54;6.40;99.90
26103;DHT22;69760;49.380;8.998;2023-12-20T20:24:20;6.40;99.90
26103;DHT22;69760;49.380;8.998;2023-12-20T20:26:46;6.40;99.90
26103;DHT22;69760;49.380;8.998;2023-12-20T20:29:12;6.40;99.90
26103;DHT22;69760;49.380;8.998;2023-12-20T20:31:37;6.40;99.90
26103;DHT22;69760;49.380;8.998;2023-12-20T20:34:03;6.50;99.90
26103;DHT22;69760;49.380;8.998;2023-12-20T20:36:29;6.50;99.90
26103;DHT22;69760;49.380;8.998;2023-12-20T20:40:32;6.60;99.90
26103;DHT22;69760;49.380;8.998;2023-12-20T20:42:57;6.50;99.90
26103;DHT22;69760;49.380;8.998;2023-12-20T20:45:23;6.50;99.90
26103;DHT22;69760;49.380;8.998;2023-12-20T20:47:49;6.50;99.90
26103;DHT22;69760;49.380;8.998;2023-12-20T20:50:14;6.60;99.90
26103;DHT22;69760;49.380;8.998;2023-12-20T20:52:40;6.50;99.90
26103;DHT22;69760;49.380;8.998;2023-12-20T20:55:07;6.50;99.90
26103;DHT22;69760;49.380;8.998;2023-12-20T20:57:32;6.50;99.90
26103;DHT22;69760;49.380;8.998;2023-12-20T20:59:58;6.50;99.90
26103;DHT22;69760;49.380;8.998;2023-12-20T21:02:23;6.40;99.90
26103;DHT22;69760;49.380;8.998;2023-12-20T21:04:50;6.40;99.90
26103;DHT22;69760;49.380;8.998;2023-12-20T21:07:15;6.40;99.90
26103;DHT22;69760;49.380;8.998;2023-12-20T21:09:41;6.30;99.90
26103;DHT22;69760;49.380;8.998;2023-12-20T21:12:07;6.30;99.90
26103;DHT22;69760;49.380;8.998;2023-12-20T21:14:32;6.20;99.90
26103;DHT22;69760;49.380;8.998;2023-12-20T21:16:58;6.10;99.90
26103;DHT22;69760;49.380;8.998;2023-12-20T21:19:24;6.10;99.90
26103;DHT22;69760;49.380;8.998;2023-12-20T21:21:49;6.10;99.90
26103;DHT22;69760;49.380;8.998;2023-12-20T21:24:15;6.00;99.90
26103;DHT22;69760;49.380;8.998;2023-12-20T21:26:41;6.00;99.90
26103;DHT22;69760;49.380;8.998;2023-12-20T21:29:07;6.00;99.90
26103;DHT22;69760;49.380;8.998;2023-12-20T21:31:34;5.90;99.90
26103;DHT22;69760;49.380;8.998;2023-12-20T21:34:00;5.90;99.90
26103;DHT22;69760;49.380;8.998;2023-12-20T21:36:26;5.90;99.90
26103;DHT22;69760;49.380;8.998;2023-12-20T21:38:51;6.00;99.90
26103;DHT22;69760;49.380;8.998;2023-12-20T21:41:17;6.00;99.90
26103;DHT22;69760;49.380;8.998;2023-12-20T21:43:42;5.90;99.90
26103;DHT22;69760;49.380;8.998;2023-12-20T21:46:08;5.90;99.90
26103;DHT22;69760;49.380;8.998;2023-12-20T21:48:33;5.90;99.90
26103;DHT22;69760;49.380;8.998;2023-12-20T21:50:59;5.90;99.90
26103;DHT22;69760;49.380;8.998;2023-12-20T21:53:24;5.90;99.90
26103;DHT22;69760;49.380;8.998;2023-12-20T21:55:50;5.90;99.90
26103;DHT22;69760;49.380;8.998;2023-12-20T21:58:15;6.00;99.90
26103;DHT22;69760;49.380;8.998;2023-12-20T22:00:41;6.00;99.90
26103;DHT22;69760;49.380;8.998;2023-12-20T22:03:06;5.90;99.90
26103;DHT22;69760;49.380;8.998;2023-12-20T22:05:38;5.90;99.90
26103;DHT22;69760;49.380;8.998;2023-12-20T22:08:05;5.90;99.90
26103;DHT22;69760;49.380;8.998;2023-12-20T22:10:31;5.90;99.90
26103;DHT22;69760;49.380;8.998;2023-12-20T22:12:57;5.90;99.90
26103;DHT22;69760;49.380;8.998;2023-12-20T22:15:22;5.90;99.90
26103;DHT22;69760;49.380;8.998;2023-12-20T22:17:48;5.90;99.90
26103;DHT22;69760;49.380;8.998;2023-12-20T22:20:14;6.00;99.90
26103;DHT22;69760;49.380;8.998;2023-12-20T22:22:40;6.00;99.90
26103;DHT22;69760;49.380;8.998;2023-12-20T22:25:06;6.10;99.90
26103;DHT22;69760;49.380;8.998;2023-12-20T22:27:31;6.10;99.90
26103;DHT22;69760;49.380;8.998;2023-12-20T22:29:57;6.10;99.90
26103;DHT22;69760;49.380;8.998;2023-12-20T22:32:22;6.20;99.90
26103;DHT22;69760;49.380;8.998;2023-12-20T22:34:50;6.20;99.90
26103;DHT22;69760;49.380;8.998;2023-12-20T22:37:15;6.10;99.90
26103;DHT22;69760;49.380;8.998;2023-12-20T22:39:41;6.00;99.90
26103;DHT22;69760;49.380;8.998;2023-12-20T22:42:06;6.00;99.90
26103;DHT22;69760;49.380;8.998;2023-12-20T22:44:32;6.10;99.90
26103;DHT22;69760;49.380;8.998;2023-12-20T22:46:57;6.00;99.90
26103;DHT22;69760;49.380;8.998;2023-12-20T22:49:23;6.10;99.90
26103;DHT22;69760;49.380;8.998;2023-12-20T22:51:48;6.10;99.90
26103;DHT22;69760;49.380;8.998;2023-12-20T22:54:14;6.00;99.90
26103;DHT22;69760;49.380;8.998;2023-12-20T22:56:40;6.10;99.90
26103;DHT22;69760;49.380;8.998;2023-12-20T22:59:06;6.10;99.90
26103;DHT22;69760;49.380;8.998;2023-12-20T23:01:31;6.10;99.90
26103;DHT22;69760;49.380;8.998;2023-12-20T23:03:57;6.10;99.90
26103;DHT22;69760;49.380;8.998;2023-12-20T23:06:22;6.10;99.90
26103;DHT22;69760;49.380;8.998;2023-12-20T23:08:48;6.10;99.90
26103;DHT22;69760;49.380;8.998;2023-12-20T23:11:14;6.10;99.90
26103;DHT22;69760;49.380;8.998;2023-12-20T23:13:39;6.10;99.90
26103;DHT22;69760;49.380;8.998;2023-12-20T23:16:05;6.10;99.90
26103;DHT22;69760;49.380;8.998;2023-12-20T23:18:31;6.10;99.90
26103;DHT22;69760;49.380;8.998;2023-12-20T23:20:57;6.10;99.90
26103;DHT22;69760;49.380;8.998;2023-12-20T23:23:22;6.20;99.90
26103;DHT22;69760;49.380;8.998;2023-12-20T23:25:48;6.20;99.90
26103;DHT22;69760;49.380;8.998;2023-12-20T23:28:15;6.20;99.90
26103;DHT22;69760;49.380;8.998;2023-12-20T23:30:40;6.30;99.90
26103;DHT22;69760;49.380;8.998;2023-12-20T23:33:06;6.20;99.90
26103;DHT22;69760;49.380;8.998;2023-12-20T23:35:31;6.20;99.90
26103;DHT22;69760;49.380;8.998;2023-12-20T23:37:57;6.20;99.90
26103;DHT22;69760;49.380;8.998;2023-12-20T23:40:22;6.20;99.90
26103;DHT22;69760;49.380;8.998;2023-12-20T23:42:50;6.10;99.90
26103;DHT22;69760;49.380;8.998;2023-12-20T23:45:16;6.10;99.90
26103;DHT22;69760;49.380;8.998;2023-12-20T23:47:41;6.10;99.90
26103;DHT22;69760;49.380;8.998;2023-12-20T23:50:07;6.20;99.90
26103;DHT22;69760;49.380;8.998;2023-12-20T23:52:33;6.20;99.90
26103;DHT22;69760;49.380;8.998;2023-12-20T23:54:59;6.20;99.90
26103;DHT22;69760;49.380;8.998;2023-12-20T23:57:25;6.20;99.90
26103;DHT22;69760;49.380;8.998;2023-12-20T23:59:50;6.20;99.90
